Time;durP1;ratioP1;P1;durP2;ratioP2;P2;SDS_P1;SDS_P2;PMS_P1;PMS_P2;Temp;Humidity;BMP_temperature;BMP_pressure;BME280_temperature;BME280_humidity;BME280_pressure;Samples;Min_cycle;Max_cycle;Signal;HPM_P1;HPM_P2
2022/06/17 00:01:19;;;;;;;7.07;2.70;;;17.00;89.80;;;;;;4973777;28;20430;-88
2022/06/17 00:03:45;;;;;;;4.57;2.80;;;16.90;90.10;;;;;;4973715;28;20781;-87
2022/06/17 00:06:12;;;;;;;2.60;2.03;;;16.80;90.30;;;;;;4973710;28;20465;-87
2022/06/17 00:08:44;;;;;;;6.07;2.97;;;16.70;90.80;;;;;;4974379;28;20947;-88
2022/06/17 00:11:21;;;;;;;3.53;2.93;;;16.70;91.20;;;;;;4974159;28;20414;-88
2022/06/17 00:13:47;;;;;;;3.23;2.57;;;16.70;91.40;;;;;;4974318;28;20414;-88
2022/06/17 00:16:16;;;;;;;3.53;2.40;;;16.60;91.70;;;;;;4974738;28;20974;-88
2022/06/17 00:18:42;;;;;;;6.63;3.10;;;16.50;91.70;;;;;;4973151;28;20414;-88
2022/06/17 00:21:26;;;;;;;3.13;2.37;;;16.50;91.80;;;;;;4972962;28;20430;-87
2022/06/17 00:23:52;;;;;;;3.63;2.60;;;16.40;92.20;;;;;;4972794;28;20436;-88
2022/06/17 00:26:18;;;;;;;4.17;2.60;;;16.30;92.50;;;;;;4971983;28;20470;-88
2022/06/17 00:28:45;;;;;;;4.63;2.73;;;16.30;92.80;;;;;;4972063;28;20186;-88
2022/06/17 00:31:10;;;;;;;2.83;2.13;;;16.20;93.00;;;;;;4970942;28;20961;-88
2022/06/17 00:33:36;;;;;;;3.73;2.73;;;16.10;93.10;;;;;;4971166;28;20418;-88
2022/06/17 00:36:04;;;;;;;2.80;2.33;;;16.00;93.10;;;;;;4971318;28;20480;-88
2022/06/17 00:38:31;;;;;;;4.00;2.60;;;16.00;93.40;;;;;;4971802;28;20182;-88
2022/06/17 00:41:02;;;;;;;4.80;2.60;;;15.90;94.00;;;;;;4972061;28;20932;-88
2022/06/17 00:43:33;;;;;;;3.57;2.60;;;15.90;94.30;;;;;;4971227;28;20480;-88
2022/06/17 00:46:28;;;;;;;3.97;2.63;;;15.80;94.40;;;;;;4971471;28;20492;-88
2022/06/17 00:49:09;;;;;;;2.73;2.40;;;15.70;94.30;;;;;;4972426;28;20402;-88
2022/06/17 00:51:40;;;;;;;3.73;3.53;;;15.60;94.80;;;;;;4971184;28;20413;-88
2022/06/17 00:54:26;;;;;;;4.10;3.03;;;15.60;94.80;;;;;;4970719;28;21102;-88
2022/06/17 00:56:52;;;;;;;4.90;2.57;;;15.60;94.60;;;;;;4970586;28;20512;-88
2022/06/17 00:59:18;;;;;;;5.57;3.20;;;15.50;94.50;;;;;;4971371;28;20477;-87
2022/06/17 01:02:09;;;;;;;4.70;2.77;;;15.50;94.80;;;;;;4970890;28;20422;-88
2022/06/17 01:04:40;;;;;;;3.00;2.60;;;15.40;95.10;;;;;;4970977;28;20422;-88
2022/06/17 01:07:22;;;;;;;3.93;2.90;;;15.30;95.30;;;;;;4972284;28;20493;-88
2022/06/17 01:09:58;;;;;;;3.30;2.77;;;15.30;95.20;;;;;;4971059;28;20476;-87
2022/06/17 01:12:42;;;;;;;2.93;2.50;;;15.20;95.50;;;;;;4970799;28;20420;-88
2022/06/17 01:15:08;;;;;;;5.97;2.90;;;15.20;95.50;;;;;;4971010;28;20422;-88
2022/06/17 01:17:38;;;;;;;3.37;2.67;;;15.10;95.60;;;;;;4970511;28;20454;-87
2022/06/17 01:20:07;;;;;;;8.70;2.53;;;15.10;95.60;;;;;;4970999;28;20411;-88
2022/06/17 01:22:46;;;;;;;4.40;2.90;;;15.00;96.10;;;;;;4970903;28;20433;-86
2022/06/17 01:25:14;;;;;;;3.67;2.90;;;15.00;96.00;;;;;;4970557;28;21133;-87
2022/06/17 01:27:46;;;;;;;4.13;2.50;;;14.90;96.00;;;;;;4970787;28;20445;-87
2022/06/17 01:30:18;;;;;;;3.73;2.40;;;14.90;96.30;;;;;;4955546;28;20438;-86
2022/06/17 01:32:52;;;;;;;4.80;2.37;;;14.90;96.20;;;;;;4971691;28;20418;-88
2022/06/17 01:35:20;;;;;;;3.70;2.93;;;14.80;96.30;;;;;;4971616;28;20429;-87
2022/06/17 01:37:46;;;;;;;6.70;3.93;;;14.80;96.20;;;;;;4970930;28;20442;-87
2022/06/17 01:40:12;;;;;;;3.33;2.53;;;14.80;96.30;;;;;;4970680;28;20481;-87
2022/06/17 01:42:39;;;;;;;3.13;2.70;;;14.80;96.40;;;;;;4970654;28;20230;-87
2022/06/17 01:45:07;;;;;;;6.23;2.63;;;14.80;96.40;;;;;;4970864;28;20944;-87
2022/06/17 01:47:33;;;;;;;6.00;3.63;;;14.70;96.70;;;;;;4970663;28;20963;-88
2022/06/17 01:50:03;;;;;;;5.93;3.10;;;14.70;96.90;;;;;;4970142;28;20422;-87
2022/06/17 01:52:38;;;;;;;3.90;2.53;;;14.70;96.90;;;;;;4970698;28;20425;-88
2022/06/17 01:55:09;;;;;;;6.07;3.00;;;14.60;97.00;;;;;;4969356;28;20417;-88
2022/06/17 01:57:44;;;;;;;5.07;2.80;;;14.60;97.20;;;;;;4969993;28;20438;-87
2022/06/17 02:00:19;;;;;;;4.37;2.80;;;14.60;97.00;;;;;;4968457;28;20433;-88
2022/06/17 02:02:49;;;;;;;4.93;2.80;;;14.50;97.20;;;;;;4958950;28;20429;-88
2022/06/17 02:05:15;;;;;;;4.07;2.93;;;14.50;97.10;;;;;;4971411;28;20544;-88
2022/06/17 02:07:47;;;;;;;3.87;2.60;;;14.50;97.20;;;;;;4969405;28;20894;-88
2022/06/17 02:10:14;;;;;;;3.03;2.57;;;14.40;97.20;;;;;;4970076;28;20167;-88
2022/06/17 02:12:40;;;;;;;4.63;2.70;;;14.40;97.30;;;;;;5002328;23;20499;-91
2022/06/17 02:15:07;;;;;;;3.70;2.77;;;14.40;97.30;;;;;;5008617;28;20424;-91
2022/06/17 02:17:42;;;;;;;3.93;3.27;;;14.40;97.30;;;;;;5010883;28;20424;-87
2022/06/17 02:20:10;;;;;;;7.00;2.77;;;14.40;97.30;;;;;;5011981;28;20411;-91
2022/06/17 02:22:38;;;;;;;3.60;2.50;;;14.30;97.30;;;;;;5012140;28;20455;-91
2022/06/17 02:25:18;;;;;;;3.60;2.63;;;14.30;97.30;;;;;;5003403;28;20679;-90
2022/06/17 02:27:52;;;;;;;3.37;2.20;;;14.20;97.30;;;;;;4999303;28;20428;-90
2022/06/17 02:30:21;;;;;;;4.20;3.00;;;14.20;97.30;;;;;;5012188;28;20424;-90
2022/06/17 02:32:49;;;;;;;3.17;2.63;;;14.10;97.30;;;;;;5012071;28;20436;-91
2022/06/17 02:35:22;;;;;;;3.50;2.57;;;14.10;97.30;;;;;;5013571;28;20423;-92
2022/06/17 02:37:52;;;;;;;7.80;2.77;;;14.10;97.30;;;;;;5011888;28;20424;-90
2022/06/17 02:44:26;;;;;;;3.00;2.57;;;14.10;97.30;;;;;;5000714;28;20494;-91
2022/06/17 02:46:58;;;;;;;6.43;3.10;;;14.00;97.30;;;;;;5013423;28;20450;-91
2022/06/17 02:49:30;;;;;;;4.27;2.70;;;14.00;97.30;;;;;;5012300;28;20934;-91
2022/06/17 02:52:02;;;;;;;4.70;2.80;;;14.00;97.30;;;;;;5011894;28;20432;-92
2022/06/17 02:54:32;;;;;;;3.37;2.47;;;14.00;97.30;;;;;;5011951;28;20483;-90
2022/06/17 02:57:00;;;;;;;3.23;2.57;;;13.90;97.30;;;;;;5012296;28;20506;-90
2022/06/17 03:00:11;;;;;;;2.90;2.23;;;13.80;97.30;;;;;;5011543;28;20439;-91
2022/06/17 03:02:42;;;;;;;5.63;2.70;;;13.70;97.30;;;;;;4982092;28;20458;-90
2022/06/17 03:05:38;;;;;;;4.33;2.47;;;13.70;97.30;;;;;;5011604;28;20498;-91
2022/06/17 03:08:20;;;;;;;4.13;2.40;;;13.60;97.30;;;;;;4987188;28;20507;-90
2022/06/17 03:10:46;;;;;;;5.33;2.53;;;13.60;97.30;;;;;;5011850;28;20420;-91
2022/06/17 03:13:25;;;;;;;4.73;3.47;;;13.60;97.30;;;;;;5014264;28;20522;-92
2022/06/17 03:15:55;;;;;;;4.17;2.70;;;13.50;97.30;;;;;;5015437;28;20185;-91
2022/06/17 03:18:22;;;;;;;5.77;2.90;;;13.50;97.30;;;;;;5015444;28;21022;-91
2022/06/17 03:20:49;;;;;;;6.27;2.93;;;13.50;97.30;;;;;;5015178;28;20424;-90
2022/06/17 03:23:21;;;;;;;5.27;2.77;;;13.50;97.30;;;;;;5014662;28;20440;-90
2022/06/17 03:25:55;;;;;;;5.33;2.33;;;13.50;97.30;;;;;;5031129;28;20507;-91
2022/06/17 03:28:29;;;;;;;5.50;2.70;;;13.50;97.30;;;;;;5014987;28;20442;-91
2022/06/17 03:31:03;;;;;;;3.80;2.73;;;13.50;97.30;;;;;;5016936;28;20859;-90
2022/06/17 03:33:34;;;;;;;4.50;2.93;;;13.50;97.30;;;;;;5014910;28;20995;-91
2022/06/17 03:36:08;;;;;;;3.23;2.53;;;13.50;97.30;;;;;;5016285;28;20408;-91
2022/06/17 03:38:40;;;;;;;5.30;2.67;;;13.50;97.30;;;;;;5014858;28;20424;-90
2022/06/17 03:41:35;;;;;;;3.33;2.40;;;13.40;97.30;;;;;;5016220;28;20791;-90
2022/06/17 03:44:18;;;;;;;3.57;2.50;;;13.40;97.30;;;;;;5014656;28;20464;-91
2022/06/17 03:46:58;;;;;;;10.03;3.50;;;13.40;97.30;;;;;;5014207;28;20484;-90
2022/06/17 03:49:34;;;;;;;5.90;3.03;;;13.40;97.30;;;;;;5014644;28;20439;-91
2022/06/17 03:52:04;;;;;;;7.07;3.10;;;13.40;97.30;;;;;;5014629;28;20993;-90
2022/06/17 03:54:30;;;;;;;7.13;2.70;;;13.40;97.30;;;;;;5015101;28;20424;-91
2022/06/17 03:56:56;;;;;;;6.47;3.30;;;13.50;97.30;;;;;;5005884;28;20429;-91
2022/06/17 03:59:28;;;;;;;8.50;3.20;;;13.50;97.30;;;;;;5012073;28;20189;-91
2022/06/17 04:02:07;;;;;;;4.37;2.87;;;13.60;97.30;;;;;;5014972;28;20451;-90
2022/06/17 04:04:37;;;;;;;5.00;3.37;;;13.60;97.30;;;;;;5014821;28;20781;-91
2022/06/17 04:07:05;;;;;;;9.27;3.67;;;13.70;97.30;;;;;;5014133;28;20455;-90
2022/06/17 04:09:37;;;;;;;5.03;3.30;;;13.70;97.30;;;;;;5014219;28;20439;-91
2022/06/17 04:12:11;;;;;;;7.13;3.90;;;13.70;97.30;;;;;;5013534;28;20468;-88
2022/06/17 04:15:40;;;;;;;9.10;4.27;;;13.80;97.30;;;;;;5012526;28;20433;-87
2022/06/17 04:18:09;;;;;;;11.30;3.70;;;13.80;97.30;;;;;;4943462;29;20434;-88
2022/06/17 04:21:11;;;;;;;4.33;3.60;;;13.90;97.30;;;;;;4938246;29;20800;-89
2022/06/17 04:23:51;;;;;;;8.60;4.40;;;13.90;97.30;;;;;;4951897;28;20441;-87
2022/06/17 04:26:41;;;;;;;6.70;4.03;;;14.00;97.30;;;;;;4953937;29;20481;-91
2022/06/17 04:29:21;;;;;;;6.53;4.07;;;14.00;97.30;;;;;;4969406;28;20482;-92
2022/06/17 04:32:22;;;;;;;9.83;4.00;;;14.10;97.30;;;;;;5016828;23;20981;-88
2022/06/17 04:34:51;;;;;;;3.97;3.47;;;14.10;97.30;;;;;;4990609;28;20472;-88
2022/06/17 04:41:23;;;;;;;6.40;3.53;;;14.20;97.30;;;;;;4947291;28;20407;-87
2022/06/17 04:44:10;;;;;;;8.53;3.70;;;14.30;97.30;;;;;;5020087;23;20480;-87
2022/06/17 04:47:03;;;;;;;6.53;4.20;;;14.40;97.30;;;;;;5010551;28;20465;-88
2022/06/17 04:49:53;;;;;;;;;;;;;;;;;;;;;
2022/06/17 04:53:11;;;;;;;6.07;3.90;;;14.50;97.30;;;;;;5011300;28;20444;-87
2022/06/17 04:55:42;;;;;;;7.13;5.00;;;14.60;97.30;;;;;;4997710;28;20523;-91
2022/06/17 04:58:13;;;;;;;7.47;4.13;;;14.60;97.30;;;;;;5006075;28;20420;-89
2022/06/17 05:03:40;;;;;;;6.33;3.50;;;14.80;97.30;;;;;;5012084;28;20447;-91
2022/06/17 05:06:23;;;;;;;6.80;3.97;;;14.80;97.30;;;;;;5013958;28;20454;-90
2022/06/17 05:09:12;;;;;;;12.17;4.13;;;14.90;97.30;;;;;;5009918;28;20178;-91
2022/06/17 05:11:52;;;;;;;7.70;4.30;;;15.00;97.30;;;;;;5012091;28;20434;-91
2022/06/17 05:14:33;;;;;;;9.27;4.53;;;15.00;97.30;;;;;;5013922;28;20439;-91
2022/06/17 05:17:02;;;;;;;10.33;3.90;;;15.10;97.30;;;;;;5014229;28;20496;-89
2022/06/17 05:19:30;;;;;;;12.83;3.97;;;15.20;97.30;;;;;;5007197;28;20420;-91
2022/06/17 05:22:10;;;;;;;7.77;4.10;;;15.20;97.30;;;;;;4999412;28;20441;-92
2022/06/17 05:24:39;;;;;;;8.07;3.70;;;15.20;97.30;;;;;;5008831;28;20445;-92
2022/06/17 05:27:12;;;;;;;7.60;4.47;;;15.30;97.30;;;;;;5014044;28;20757;-91
2022/06/17 05:29:39;;;;;;;10.63;4.70;;;15.40;97.30;;;;;;5014083;28;20440;-90
2022/06/17 05:32:21;;;;;;;8.70;4.40;;;15.50;97.30;;;;;;5001955;28;20447;-92
2022/06/17 05:34:49;;;;;;;7.73;4.23;;;15.50;97.30;;;;;;5013413;28;20435;-91
2022/06/17 05:37:22;;;;;;;9.27;5.00;;;15.60;97.30;;;;;;5013910;28;20439;-92
2022/06/17 05:39:51;;;;;;;10.90;3.97;;;15.60;97.30;;;;;;5013282;28;20474;-90
2022/06/17 05:42:16;;;;;;;13.47;3.77;;;15.70;97.30;;;;;;5009803;23;20496;-87
2022/06/17 05:44:42;;;;;;;6.33;3.90;;;15.70;97.30;;;;;;4974559;28;20782;-87
2022/06/17 05:47:09;;;;;;;8.60;4.50;;;15.80;97.30;;;;;;4974137;28;20241;-87
2022/06/17 05:49:35;;;;;;;6.40;4.10;;;15.90;97.00;;;;;;4961639;28;20661;-87
2022/06/17 05:52:01;;;;;;;9.57;4.10;;;15.90;97.10;;;;;;4974894;28;20657;-87
2022/06/17 05:54:27;;;;;;;6.63;4.60;;;16.00;96.90;;;;;;4990260;28;20492;-87
2022/06/17 05:56:52;;;;;;;11.23;4.90;;;16.00;97.10;;;;;;4954746;28;20194;-87
2022/06/17 05:59:19;;;;;;;15.60;4.07;;;16.10;97.30;;;;;;4955399;28;20418;-87
2022/06/17 06:01:45;;;;;;;5.60;4.20;;;16.10;97.10;;;;;;4955039;28;20273;-88
2022/06/17 06:04:10;;;;;;;7.57;4.00;;;16.20;96.90;;;;;;4954394;28;20528;-88
2022/06/17 06:06:36;;;;;;;10.03;4.20;;;16.20;96.70;;;;;;4954745;28;20681;-88
2022/06/17 06:09:02;;;;;;;7.67;3.80;;;16.30;96.70;;;;;;4942659;28;20187;-88
2022/06/17 06:11:32;;;;;;;8.10;4.10;;;16.30;96.50;;;;;;4963457;28;20270;-87
2022/06/17 06:14:02;;;;;;;7.20;3.67;;;16.40;96.50;;;;;;4958780;28;20515;-88
2022/06/17 06:16:30;;;;;;;11.67;3.40;;;16.40;96.40;;;;;;4973313;28;20985;-87
2022/06/17 06:18:58;;;;;;;8.80;3.80;;;16.50;95.90;;;;;;4989759;28;20479;-88
2022/06/17 06:21:24;;;;;;;8.67;3.40;;;16.60;95.80;;;;;;4972957;28;20524;-88
2022/06/17 06:23:51;;;;;;;6.73;3.90;;;16.60;95.60;;;;;;4965515;28;20560;-87
2022/06/17 06:26:21;;;;;;;6.57;3.10;;;16.70;95.20;;;;;;4962636;28;20203;-88
2022/06/17 06:28:47;;;;;;;3.40;3.07;;;16.80;95.00;;;;;;4945888;28;20427;-88
2022/06/17 06:31:33;;;;;;;10.40;3.87;;;16.80;94.80;;;;;;4953614;28;20428;-89
2022/06/17 06:33:59;;;;;;;7.50;3.67;;;16.90;94.60;;;;;;4955790;28;20468;-89
2022/06/17 06:36:24;;;;;;;5.70;3.00;;;17.00;94.60;;;;;;4955682;28;20442;-88
2022/06/17 06:38:50;;;;;;;8.60;4.37;;;17.00;94.30;;;;;;4953935;28;20671;-88
2022/06/17 06:41:21;;;;;;;7.00;3.60;;;17.10;94.30;;;;;;4966379;28;20179;-88
2022/06/17 06:43:47;;;;;;;6.10;3.10;;;17.20;93.70;;;;;;4971907;28;20280;-89
2022/06/17 06:46:17;;;;;;;7.10;2.70;;;17.20;93.30;;;;;;4986814;28;20631;-89
2022/06/17 06:48:43;;;;;;;4.80;3.17;;;17.30;93.30;;;;;;4977370;28;20421;-89
2022/06/17 06:51:09;;;;;;;5.80;2.90;;;17.40;92.80;;;;;;5013496;28;20412;-88
2022/06/17 06:53:34;;;;;;;5.63;3.20;;;17.40;92.60;;;;;;4984371;28;20504;-88
2022/06/17 06:56:01;;;;;;;5.17;2.70;;;17.50;92.50;;;;;;4994066;28;20452;-88
2022/06/17 06:58:27;;;;;;;4.37;2.57;;;17.50;91.90;;;;;;4982643;28;20182;-89
2022/06/17 07:00:55;;;;;;;3.23;2.63;;;17.60;91.70;;;;;;4976396;28;20858;-89
2022/06/17 07:03:21;;;;;;;5.60;2.37;;;17.70;91.00;;;;;;4976123;28;20273;-90
2022/06/17 07:05:53;;;;;;;6.10;3.03;;;17.80;90.50;;;;;;4977563;28;20457;-88
2022/06/17 07:08:21;;;;;;;4.40;2.87;;;17.80;90.70;;;;;;4977742;28;20782;-90
2022/06/17 07:10:49;;;;;;;7.90;2.97;;;17.90;90.70;;;;;;4975706;28;20413;-88
2022/06/17 07:13:15;;;;;;;6.70;2.87;;;18.00;90.60;;;;;;4975999;28;20918;-88
2022/06/17 07:15:43;;;;;;;10.70;2.47;;;18.00;90.60;;;;;;4977081;28;20437;-88
2022/06/17 07:18:15;;;;;;;3.73;2.33;;;18.10;90.10;;;;;;4973644;28;20293;-88
2022/06/17 07:20:46;;;;;;;4.67;2.40;;;18.20;89.40;;;;;;4968046;28;20477;-88
2022/06/17 07:23:18;;;;;;;3.60;2.23;;;18.30;89.70;;;;;;4975933;28;20424;-88
2022/06/17 07:25:44;;;;;;;4.43;2.40;;;18.40;88.30;;;;;;4975157;28;20453;-89
2022/06/17 07:28:15;;;;;;;2.70;2.00;;;18.60;88.20;;;;;;4976126;28;20448;-89
2022/06/17 07:30:44;;;;;;;4.73;2.20;;;18.70;88.00;;;;;;4969351;28;20476;-88
2022/06/17 07:33:10;;;;;;;8.87;2.40;;;18.80;87.90;;;;;;4974699;28;20483;-89
2022/06/17 07:35:36;;;;;;;6.00;2.23;;;18.90;87.40;;;;;;4983780;28;20433;-88
2022/06/17 07:40:48;;;;;;;2.80;2.07;;;19.00;86.70;;;;;;4994775;28;20192;-88
2022/06/17 07:43:15;;;;;;;5.77;2.27;;;19.00;86.20;;;;;;4973366;28;20467;-88
2022/06/17 07:45:41;;;;;;;4.17;2.00;;;19.10;86.10;;;;;;4969944;28;20500;-88
2022/06/17 07:48:12;;;;;;;3.70;2.27;;;19.10;86.00;;;;;;4972848;28;20494;-90
2022/06/17 07:50:41;;;;;;;9.50;3.93;;;19.20;86.10;;;;;;4983422;28;20701;-88
2022/06/17 07:53:13;;;;;;;7.70;2.40;;;19.20;85.80;;;;;;4978193;28;20530;-88
2022/06/17 07:55:40;;;;;;;5.17;2.57;;;19.30;85.30;;;;;;4968278;28;20437;-88
2022/06/17 07:58:09;;;;;;;5.77;2.17;;;19.40;84.50;;;;;;4959177;28;20454;-89
2022/06/17 08:00:42;;;;;;;3.33;2.20;;;19.40;84.40;;;;;;4963805;28;20436;-89
2022/06/17 08:03:13;;;;;;;4.30;2.20;;;19.50;84.60;;;;;;4972723;28;20420;-89
2022/06/17 08:05:44;;;;;;;4.40;2.30;;;19.60;84.70;;;;;;4972942;28;20479;-88
2022/06/17 08:08:12;;;;;;;8.33;2.97;;;19.70;84.50;;;;;;4975490;28;20432;-89
2022/06/17 08:10:38;;;;;;;6.37;2.30;;;19.80;84.10;;;;;;4974336;28;20452;-89
2022/06/17 08:13:05;;;;;;;3.50;2.30;;;19.90;84.50;;;;;;4977770;28;20460;-88
2022/06/17 08:15:31;;;;;;;4.47;2.20;;;20.00;84.00;;;;;;4974896;28;21642;-89
2022/06/17 08:17:56;;;;;;;16.30;3.27;;;20.10;83.50;;;;;;4983834;28;20437;-89
2022/06/17 08:20:25;;;;;;;3.00;2.33;;;20.10;83.80;;;;;;4977742;28;20182;-89
2022/06/17 08:22:52;;;;;;;4.33;2.30;;;20.20;84.10;;;;;;4976078;28;20205;-89
2022/06/17 08:25:17;;;;;;;2.50;1.83;;;20.30;84.50;;;;;;4974809;28;20418;-89
2022/06/17 08:27:49;;;;;;;12.20;3.40;;;20.40;83.60;;;;;;4983786;28;20447;-90
2022/06/17 08:30:17;;;;;;;4.53;2.30;;;20.50;82.30;;;;;;4995170;28;20169;-90
2022/06/17 08:32:45;;;;;;;6.20;2.50;;;20.50;81.90;;;;;;4984587;28;20467;-89
2022/06/17 08:35:12;;;;;;;9.83;2.20;;;20.60;81.90;;;;;;4978284;28;20796;-90
2022/06/17 08:37:38;;;;;;;5.17;1.90;;;20.60;82.10;;;;;;4977459;28;20441;-88
2022/06/17 08:40:28;;;;;;;5.80;2.27;;;20.60;81.50;;;;;;4975613;28;20524;-89
2022/06/17 08:43:20;;;;;;;5.30;2.67;;;20.70;82.50;;;;;;4936142;29;20237;-90
2022/06/17 08:46:21;;;;;;;5.60;2.23;;;20.90;81.30;;;;;;4946830;28;20493;-89
2022/06/17 08:49:10;;;;;;;5.70;2.63;;;21.00;81.40;;;;;;4985192;28;20483;-90
2022/06/17 08:52:04;;;;;;;3.40;1.90;;;21.10;81.00;;;;;;4975301;28;20524;-90
2022/06/17 08:55:07;;;;;;;3.70;2.20;;;21.20;80.80;;;;;;4967861;28;21028;-88
2022/06/17 08:58:06;;;;;;;3.07;2.03;;;21.20;80.50;;;;;;4975241;28;20953;-90
2022/06/17 09:00:42;;;;;;;3.53;2.60;;;21.30;81.10;;;;;;4955688;28;20488;-91
2022/06/17 09:03:35;;;;;;;6.47;2.73;;;21.40;80.80;;;;;;4955236;28;20760;-90
2022/06/17 09:06:21;;;;;;;5.43;2.30;;;21.50;80.40;;;;;;4954306;28;20469;-88
2022/06/17 09:09:13;;;;;;;3.60;2.17;;;21.50;79.00;;;;;;4951872;28;20427;-90
2022/06/17 09:12:04;;;;;;;2.53;2.13;;;21.50;79.00;;;;;;4967181;28;20934;-88
2022/06/17 09:14:31;;;;;;;5.30;2.50;;;21.50;78.80;;;;;;4968415;28;20980;-89
2022/06/17 09:17:16;;;;;;;2.50;2.10;;;21.50;79.10;;;;;;4954908;28;20442;-89
2022/06/17 09:19:45;;;;;;;5.47;2.27;;;21.60;79.80;;;;;;4970979;28;20446;-89
2022/06/17 09:22:25;;;;;;;2.90;2.03;;;21.70;79.20;;;;;;4955122;28;20785;-89
2022/06/17 09:24:56;;;;;;;3.90;2.27;;;21.70;78.80;;;;;;4953998;28;20414;-89
2022/06/17 09:27:35;;;;;;;10.03;2.60;;;21.80;79.20;;;;;;4960933;28;21004;-90
2022/06/17 09:30:12;;;;;;;4.33;2.50;;;21.90;79.40;;;;;;4959348;28;20427;-90
2022/06/17 09:33:09;;;;;;;5.30;2.07;;;22.00;80.00;;;;;;4953876;29;20509;-90
2022/06/17 09:35:46;;;;;;;6.57;2.63;;;22.10;81.10;;;;;;4940154;28;20928;-91
2022/06/17 09:38:21;;;;;;;9.10;2.20;;;22.30;80.00;;;;;;4970694;28;20440;-90
2022/06/17 09:40:56;;;;;;;9.93;2.87;;;22.40;79.50;;;;;;4954250;28;20441;-91
2022/06/17 09:43:24;;;;;;;4.57;2.73;;;22.50;79.30;;;;;;5026799;23;20513;-89
2022/06/17 09:45:58;;;;;;;5.73;2.70;;;22.60;79.40;;;;;;5022703;28;20454;-88
2022/06/17 09:51:51;;;;;;;6.10;2.47;;;22.80;79.10;;;;;;5020370;22;20454;-89
2022/06/17 09:54:27;;;;;;;5.00;2.40;;;22.90;80.10;;;;;;5013286;28;20474;-89
2022/06/17 09:57:13;;;;;;;3.27;2.50;;;23.00;79.60;;;;;;5010640;28;20423;-91
2022/06/17 09:59:43;;;;;;;4.20;2.10;;;23.10;78.80;;;;;;5012750;28;20473;-88
2022/06/17 10:02:22;;;;;;;4.00;2.17;;;23.20;77.30;;;;;;4989651;28;20445;-90
2022/06/17 10:04:49;;;;;;;4.17;2.30;;;23.20;76.60;;;;;;4988092;28;20478;-89
2022/06/17 10:07:41;;;;;;;5.30;2.07;;;23.20;76.70;;;;;;5011818;28;20919;-88
2022/06/17 10:10:40;;;;;;;6.20;2.20;;;23.20;76.30;;;;;;4971755;28;20428;-89
2022/06/17 10:13:12;;;;;;;2.83;2.13;;;23.20;76.60;;;;;;4996230;28;21096;-87
2022/06/17 10:19:25;;;;;;;6.13;2.40;;;23.20;75.70;;;;;;5014649;28;20504;-89
2022/06/17 10:22:20;;;;;;;3.70;2.10;;;23.20;76.00;;;;;;5014081;28;20444;-89
2022/06/17 10:25:17;;;;;;;3.37;2.30;;;23.40;75.70;;;;;;5010301;28;20423;-88
2022/06/17 10:28:01;;;;;;;7.10;1.97;;;23.40;75.90;;;;;;4948228;28;20435;-88
2022/06/17 10:31:07;;;;;;;10.00;2.50;;;23.50;74.90;;;;;;5013124;28;20958;-88
2022/06/17 10:33:36;;;;;;;6.17;3.07;;;23.60;76.20;;;;;;4996838;28;20440;-89
2022/06/17 10:36:04;;;;;;;3.10;1.97;;;23.60;76.50;;;;;;4999590;28;20428;-88
2022/06/17 10:38:32;;;;;;;4.90;2.03;;;23.70;76.30;;;;;;5011572;28;20424;-88
2022/06/17 10:40:58;;;;;;;3.87;2.20;;;23.90;74.90;;;;;;4990948;28;20420;-88
2022/06/17 10:43:32;;;;;;;7.57;2.37;;;24.00;73.10;;;;;;5012060;28;20972;-90
2022/06/17 10:45:58;;;;;;;4.20;2.40;;;24.10;74.50;;;;;;5015532;28;20467;-88
2022/06/17 10:48:29;;;;;;;1.87;1.83;;;24.20;73.70;;;;;;5015608;28;20435;-89
2022/06/17 10:50:55;;;;;;;2.70;1.93;;;24.40;73.40;;;;;;5016362;28;20424;-89
2022/06/17 10:53:34;;;;;;;7.33;2.40;;;24.50;74.00;;;;;;5016060;28;20899;-89
2022/06/17 10:56:04;;;;;;;3.47;2.00;;;24.60;73.30;;;;;;5015985;28;20251;-89
2022/06/17 10:58:33;;;;;;;4.40;2.10;;;24.80;73.60;;;;;;5016351;28;20438;-88
2022/06/17 11:01:00;;;;;;;3.47;1.97;;;24.90;73.90;;;;;;5012730;28;20850;-89
2022/06/17 11:03:38;;;;;;;5.53;2.30;;;25.00;73.80;;;;;;5016725;28;20468;-88
2022/06/17 11:06:14;;;;;;;2.23;1.90;;;25.10;72.20;;;;;;4999865;28;20455;-89
2022/06/17 11:08:49;;;;;;;4.27;2.30;;;25.10;72.60;;;;;;5016191;28;20711;-90
2022/06/17 11:14:38;;;;;;;3.00;1.87;;;25.10;72.70;;;;;;5017097;28;20422;-89
2022/06/17 11:17:12;;;;;;;3.93;2.00;;;25.10;71.50;;;;;;5001155;28;20424;-89
2022/06/17 11:19:41;;;;;;;7.13;2.00;;;25.10;71.50;;;;;;5006535;28;20412;-89
2022/06/17 11:22:17;;;;;;;2.90;2.00;;;25.10;71.30;;;;;;5000447;28;20450;-89
2022/06/17 11:24:51;;;;;;;3.17;2.07;;;25.10;71.40;;;;;;4999856;28;20424;-90
2022/06/17 11:27:33;;;;;;;4.53;2.23;;;25.20;72.40;;;;;;5009871;28;20870;-89
2022/06/17 11:30:31;;;;;;;2.53;2.10;;;25.40;71.70;;;;;;5007711;28;20428;-90
2022/06/17 11:32:59;;;;;;;5.30;2.20;;;25.50;71.20;;;;;;4994109;28;20433;-88
2022/06/17 11:35:37;;;;;;;4.90;1.90;;;25.50;71.40;;;;;;5014383;28;20416;-89
2022/06/17 11:38:13;;;;;;;3.87;1.90;;;25.60;72.60;;;;;;4995379;28;20423;-89
2022/06/17 11:40:55;;;;;;;4.10;1.80;;;25.60;70.90;;;;;;4997692;28;20429;-89
2022/06/17 11:43:41;;;;;;;1.90;1.60;;;25.60;70.60;;;;;;5006569;28;20479;-89
2022/06/17 11:46:33;;;;;;;2.87;1.70;;;25.60;71.20;;;;;;5003482;28;20456;-89
2022/06/17 11:49:07;;;;;;;5.27;1.90;;;25.70;70.80;;;;;;4999523;28;20499;-88
2022/06/17 11:51:36;;;;;;;4.13;1.90;;;25.80;71.00;;;;;;5009937;28;20512;-88
2022/06/17 11:54:08;;;;;;;5.00;1.97;;;25.90;72.10;;;;;;5005212;28;20412;-89
2022/06/17 11:56:36;;;;;;;3.40;1.67;;;26.10;70.20;;;;;;4997821;28;20416;-87
2022/06/17 11:59:15;;;;;;;3.10;1.50;;;26.10;69.30;;;;;;5013698;28;20432;-87
2022/06/17 12:02:01;;;;;;;4.90;1.70;;;26.20;68.70;;;;;;5003902;28;20408;-87
2022/06/17 12:04:43;;;;;;;4.53;2.50;;;26.30;68.30;;;;;;5013382;28;20416;-87
2022/06/17 12:07:46;;;;;;;2.50;1.70;;;26.30;68.50;;;;;;5011626;28;20466;-86
2022/06/17 12:10:35;;;;;;;3.13;1.97;;;26.30;68.70;;;;;;4990714;28;20866;-87
2022/06/17 12:13:15;;;;;;;4.13;1.67;;;26.30;68.50;;;;;;5007771;28;21013;-88
2022/06/17 12:16:11;;;;;;;2.80;1.70;;;26.40;67.30;;;;;;5013779;28;20430;-87
2022/06/17 12:18:43;;;;;;;2.20;1.50;;;26.40;68.30;;;;;;4986151;28;20464;-87
2022/06/17 12:21:18;;;;;;;1.90;1.67;;;26.50;69.20;;;;;;4997185;28;20969;-89
2022/06/17 12:23:47;;;;;;;4.13;1.60;;;26.60;69.60;;;;;;5010136;28;20562;-88
2022/06/17 12:26:20;;;;;;;5.47;1.77;;;26.70;67.00;;;;;;5014375;28;20455;-88
2022/06/17 12:29:20;;;;;;;2.80;1.60;;;26.70;67.20;;;;;;4997126;28;20427;-88
2022/06/17 12:31:53;;;;;;;3.30;2.07;;;26.70;67.20;;;;;;5011806;28;20427;-87
2022/06/17 12:34:46;;;;;;;5.27;1.77;;;26.70;68.10;;;;;;4994926;28;20420;-90
2022/06/17 12:37:44;;;;;;;1.73;1.53;;;26.70;65.80;;;;;;5014260;28;20423;-87
2022/06/17 12:40:29;;;;;;;4.33;1.37;;;26.80;64.80;;;;;;5009049;28;20420;-88
2022/06/17 12:43:03;;;;;;;6.37;1.90;;;26.90;66.80;;;;;;4983356;28;20446;-88
2022/06/17 12:45:45;;;;;;;5.83;1.83;;;27.10;66.50;;;;;;5005464;28;20437;-88
2022/06/17 12:48:29;;;;;;;1.80;1.40;;;27.10;65.80;;;;;;4993420;28;20433;-87
2022/06/17 12:54:31;;;;;;;2.70;1.80;;;27.50;66.40;;;;;;5007676;28;20547;-87
2022/06/17 12:57:17;;;;;;;3.33;1.57;;;27.70;66.10;;;;;;4996051;28;20494;-87
2022/06/17 13:00:11;;;;;;;2.10;1.60;;;27.80;67.40;;;;;;4994896;28;20412;-90
2022/06/17 13:03:17;;;;;;;4.40;1.33;;;28.00;69.20;;;;;;4991849;28;20462;-88
2022/06/17 13:05:45;;;;;;;2.60;1.50;;;28.10;68.30;;;;;;4994885;28;20460;-89
2022/06/17 13:08:23;;;;;;;1.60;1.37;;;28.20;68.00;;;;;;5004739;28;20421;-89
2022/06/17 13:11:12;;;;;;;7.63;1.43;;;28.30;66.50;;;;;;4994494;28;20779;-89
2022/06/17 13:13:57;;;;;;;3.37;1.20;;;28.30;64.20;;;;;;4994862;28;20444;-87
2022/06/17 13:16:29;;;;;;;1.70;1.30;;;28.10;64.60;;;;;;5011713;28;20462;-87
2022/06/17 13:19:03;;;;;;;2.90;1.50;;;28.10;66.20;;;;;;5012072;28;20499;-91
2022/06/17 13:21:49;;;;;;;3.60;1.87;;;28.10;65.10;;;;;;4986036;28;20472;-87
2022/06/17 13:24:24;;;;;;;2.40;1.40;;;28.10;65.20;;;;;;5004795;28;20424;-87
2022/06/17 13:27:00;;;;;;;4.63;1.40;;;28.20;65.20;;;;;;4996480;28;20478;-86
2022/06/17 13:29:46;;;;;;;3.73;1.90;;;28.30;66.00;;;;;;5007626;28;20447;-87
2022/06/17 13:32:40;;;;;;;2.97;1.73;;;28.40;65.40;;;;;;5000833;28;20444;-87
2022/06/17 13:35:21;;;;;;;2.80;1.50;;;28.60;65.30;;;;;;4996988;28;20412;-88
2022/06/17 13:37:55;;;;;;;1.93;1.50;;;28.70;66.40;;;;;;4995284;28;20427;-87
2022/06/17 13:40:46;;;;;;;2.20;1.50;;;28.90;64.20;;;;;;5003288;28;20421;-87
2022/06/17 13:43:22;;;;;;;1.73;1.70;;;29.00;64.00;;;;;;5000277;28;20443;-88
2022/06/17 13:46:06;;;;;;;3.60;1.50;;;29.10;64.30;;;;;;4999351;28;20471;-88
2022/06/17 13:48:51;;;;;;;5.20;1.40;;;29.10;63.80;;;;;;4992462;28;20436;-86
2022/06/17 13:51:35;;;;;;;2.10;1.20;;;29.10;63.00;;;;;;5002439;28;20476;-88
2022/06/17 13:54:38;;;;;;;2.80;1.50;;;29.10;62.80;;;;;;5003464;28;20449;-89
2022/06/17 13:57:37;;;;;;;2.97;1.33;;;29.10;62.40;;;;;;5017320;28;21018;-87